Terminal Aerodrome Forecast
Issued by NWS

Home | Current Version | Previous Version | Text Only | Print | Product List | Glossary On
Versions: 1 2 3 4 5 6 7 8 9 10 11 12 13
000
FTUS45 KPSR 251700
TAFIPL
TAF
KIPL 251726Z 2518/2618 27006KT P6SM FEW250
     FM252100 34010KT P6SM FEW250
     FM260400 27005KT P6SM SCT100 BKN200
     FM261000 24005KT P6SM SCT070 BKN100 OVC150
     FM261600 28008KT P6SM -RA SCT030 BKN050 OVC070=

USA.gov is the U.S. government's official web portal to all federal, state and local government web resources and services.